createdAt,value
2017-11-16T00:00:41.226Z,34.83
2017-11-16T00:03:09.401Z,38.97
2017-11-16T00:05:37.554Z,35.80
2017-11-16T00:08:05.832Z,32.15
2017-11-16T00:10:33.985Z,42.55
2017-11-16T00:13:02.126Z,39.30
2017-11-16T00:15:30.288Z,37.05
2017-11-16T00:17:58.426Z,43.15
2017-11-16T00:20:26.594Z,40.63
2017-11-16T00:22:54.726Z,38.42
2017-11-16T00:25:23.626Z,37.88
2017-11-16T00:27:52.674Z,36.63
2017-11-16T00:30:20.818Z,34.55
2017-11-16T00:32:48.973Z,38.45
2017-11-16T00:35:17.104Z,34.53
2017-11-16T00:37:45.262Z,41.70
2017-11-16T00:40:13.399Z,34.47
2017-11-16T00:42:41.653Z,42.67
2017-11-16T00:45:10.554Z,41.88
2017-11-16T00:47:38.722Z,42.33
2017-11-16T00:50:07.623Z,40.15
2017-11-16T00:52:35.755Z,44.80
2017-11-16T00:55:03.919Z,40.88
2017-11-16T00:57:32.060Z,37.65
2017-11-16T01:00:00.226Z,38.40
2017-11-16T01:02:28.478Z,46.83
2017-11-16T01:04:57.389Z,39.33
2017-11-16T01:07:25.549Z,47.97
2017-11-16T01:09:54.470Z,45.15
2017-11-16T01:12:22.627Z,43.75
2017-11-16T01:14:50.754Z,47.00
2017-11-16T01:17:19.057Z,47.15
2017-11-16T01:19:47.958Z,45.03
2017-11-16T01:22:16.872Z,50.17
2017-11-16T01:24:45.043Z,49.53
2017-11-16T01:27:13.181Z,43.78
2017-11-16T01:29:42.085Z,48.50
2017-11-16T01:32:10.256Z,46.63
2017-11-16T01:34:39.153Z,45.85
2017-11-16T01:37:07.291Z,44.10
2017-11-16T01:39:35.558Z,47.20
2017-11-16T01:42:03.684Z,53.78
2017-11-16T01:44:31.859Z,47.62
2017-11-16T01:46:59.997Z,55.58
2017-11-16T01:49:28.262Z,42.35
2017-11-16T01:51:56.406Z,50.38
2017-11-16T01:54:24.540Z,46.85
2017-11-16T01:56:52.718Z,43.87
2017-11-16T01:59:20.853Z,47.13
2017-11-16T02:01:49.038Z,46.08
2017-11-16T02:04:17.169Z,45.60
2017-11-16T02:06:45.451Z,43.95
2017-11-16T02:09:13.622Z,49.85
2017-11-16T02:11:41.774Z,44.17
2017-11-16T02:14:09.934Z,46.08
2017-11-16T02:16:38.075Z,49.80
2017-11-16T02:19:06.205Z,48.05
2017-11-16T02:21:34.365Z,49.97
2017-11-16T02:24:02.507Z,56.00
2017-11-16T02:26:31.397Z,45.75
2017-11-16T02:29:00.411Z,54.75
2017-11-16T02:31:28.554Z,46.08
2017-11-16T02:33:56.838Z,50.80
2017-11-16T02:36:24.983Z,41.65
2017-11-16T02:38:53.117Z,44.47
2017-11-16T02:41:21.266Z,47.88
2017-11-16T02:43:49.394Z,48.13
2017-11-16T02:46:17.580Z,48.30
2017-11-16T02:48:45.718Z,53.25
2017-11-16T02:51:13.985Z,45.42
2017-11-16T02:53:42.136Z,53.15
2017-11-16T02:56:11.059Z,48.10
2017-11-16T02:58:39.196Z,51.60
2017-11-16T03:01:08.165Z,46.40
2017-11-16T03:03:36.306Z,47.95
2017-11-16T03:06:04.455Z,51.17
2017-11-16T03:08:32.605Z,49.17
2017-11-16T03:11:01.521Z,56.08
2017-11-16T03:13:29.678Z,54.33
2017-11-16T03:15:58.578Z,52.55
2017-11-16T03:18:26.857Z,49.03
2017-11-16T03:20:55.010Z,59.03
2017-11-16T03:23:23.970Z,46.28
2017-11-16T03:25:52.143Z,55.30
2017-11-16T03:28:20.299Z,52.88
2017-11-16T03:30:49.191Z,49.60
2017-11-16T03:33:17.354Z,58.80
2017-11-16T03:35:45.494Z,56.35
2017-11-16T03:38:14.554Z,50.10
2017-11-16T03:40:42.675Z,55.60
2017-11-16T03:43:10.806Z,47.28
2017-11-16T03:45:38.962Z,55.03
2017-11-16T03:48:07.102Z,50.45
2017-11-16T03:50:35.271Z,54.85
2017-11-16T03:53:03.408Z,51.17
2017-11-16T03:55:31.542Z,47.88
2017-11-16T03:57:59.797Z,53.10
2017-11-16T04:00:27.921Z,56.72
2017-11-16T04:02:56.089Z,54.20
2017-11-16T04:05:24.221Z,51.75
2017-11-16T04:07:52.397Z,51.60
2017-11-16T04:10:20.560Z,51.50
2017-11-16T04:12:48.685Z,54.63
2017-11-16T04:15:16.874Z,55.50
2017-11-16T04:17:45.798Z,54.65
2017-11-16T04:20:13.962Z,51.58
2017-11-16T04:22:42.098Z,52.42
2017-11-16T04:25:10.266Z,46.63
2017-11-16T04:27:38.414Z,51.97
2017-11-16T04:30:06.552Z,45.40
2017-11-16T04:32:34.836Z,52.42
2017-11-16T04:35:02.963Z,48.15
2017-11-16T04:37:31.126Z,59.25
2017-11-16T04:39:59.262Z,60.67
2017-11-16T04:42:27.452Z,57.87
2017-11-16T04:44:55.592Z,52.05
2017-11-16T04:47:24.538Z,52.50
2017-11-16T04:49:52.688Z,55.47
2017-11-16T04:52:20.831Z,52.22
2017-11-16T04:54:48.989Z,49.70
2017-11-16T04:57:18.033Z,53.85
2017-11-16T04:59:46.165Z,53.20
2017-11-16T05:02:15.074Z,52.45
2017-11-16T05:04:43.224Z,46.63
2017-11-16T05:07:11.372Z,52.45
2017-11-16T05:09:39.541Z,47.08
2017-11-16T05:12:07.681Z,52.08
2017-11-16T05:14:35.866Z,51.58
2017-11-16T05:17:04.006Z,41.65
2017-11-16T05:19:32.173Z,44.97
2017-11-16T05:22:00.342Z,49.30
2017-11-16T05:24:29.249Z,50.20
2017-11-16T05:26:57.405Z,55.50
2017-11-16T05:29:26.481Z,51.70
2017-11-16T05:31:54.620Z,48.00
2017-11-16T05:34:22.759Z,55.28
2017-11-16T05:36:50.935Z,44.90
2017-11-16T05:39:19.060Z,48.95
2017-11-16T05:41:47.204Z,43.28
2017-11-16T05:44:15.403Z,45.50
2017-11-16T05:46:43.537Z,51.10
2017-11-16T05:49:11.675Z,48.47
2017-11-16T05:51:40.727Z,44.85
2017-11-16T05:54:08.862Z,39.30
2017-11-16T05:56:37.057Z,48.63
2017-11-16T05:59:05.193Z,46.90
2017-11-16T06:01:34.145Z,44.17
2017-11-16T06:04:02.281Z,40.00
2017-11-16T06:06:30.447Z,39.58
2017-11-16T06:08:58.578Z,43.20
2017-11-16T06:11:26.764Z,44.15
2017-11-16T06:13:54.954Z,46.47
2017-11-16T06:16:23.849Z,42.72
2017-11-16T06:18:52.786Z,38.97
2017-11-16T06:21:20.914Z,43.13
2017-11-16T06:23:49.853Z,37.88
2017-11-16T06:26:17.986Z,33.85
2017-11-16T06:28:46.126Z,37.75
2017-11-16T06:31:14.400Z,39.70
2017-11-16T06:33:42.540Z,36.28
2017-11-16T06:36:10.702Z,38.83
2017-11-16T06:38:38.866Z,39.03
2017-11-16T06:41:07.002Z,41.90
2017-11-16T06:43:35.174Z,36.60
2017-11-16T06:46:03.306Z,41.05
2017-11-16T06:48:31.569Z,31.52
2017-11-16T06:50:59.723Z,42.17
2017-11-16T06:53:27.911Z,39.15
2017-11-16T06:55:56.041Z,44.78
2017-11-16T06:58:24.189Z,38.33
2017-11-16T07:00:52.338Z,39.28
2017-11-16T07:03:20.625Z,37.42
2017-11-16T07:05:48.786Z,34.90
2017-11-16T07:08:16.937Z,40.80
2017-11-16T07:10:45.171Z,34.40
2017-11-16T07:13:13.305Z,32.60
2017-11-16T07:15:41.479Z,35.72
2017-11-16T07:18:09.619Z,34.95
2017-11-16T07:20:38.742Z,38.85
2017-11-16T07:23:06.917Z,36.42
2017-11-16T07:25:35.058Z,38.85
2017-11-16T07:28:03.998Z,35.08
2017-11-16T07:30:32.139Z,29.10
2017-11-16T07:33:01.035Z,35.00
2017-11-16T07:35:29.202Z,36.40
2017-11-16T07:37:58.099Z,31.98
2017-11-16T07:40:26.441Z,34.83
2017-11-16T07:42:54.571Z,38.63
2017-11-16T07:45:22.742Z,38.92
2017-11-16T07:47:51.650Z,31.73
2017-11-16T07:50:19.791Z,30.58
2017-11-16T07:52:47.949Z,31.67
2017-11-16T07:55:16.857Z,34.17
2017-11-16T07:57:45.198Z,36.75
2017-11-16T08:00:13.337Z,34.15
2017-11-16T08:02:41.499Z,35.80
2017-11-16T08:05:09.633Z,30.65
2017-11-16T08:07:38.565Z,30.17
2017-11-16T08:10:06.781Z,38.90
2017-11-16T08:12:34.952Z,35.83
2017-11-16T08:15:03.294Z,35.92
2017-11-16T08:17:31.438Z,29.95
2017-11-16T08:19:59.582Z,29.05
2017-11-16T08:22:27.749Z,31.55
2017-11-16T08:24:55.883Z,33.20
2017-11-16T08:27:24.040Z,34.22
2017-11-16T08:29:52.165Z,31.42
2017-11-16T08:32:20.306Z,32.42
2017-11-16T08:34:48.466Z,34.15
2017-11-16T08:37:16.611Z,36.35
2017-11-16T08:39:45.514Z,31.08
2017-11-16T08:42:13.668Z,32.20
2017-11-16T08:44:41.801Z,32.33
2017-11-16T08:47:09.953Z,30.50
2017-11-16T08:49:38.102Z,29.17
2017-11-16T08:52:07.146Z,30.52
2017-11-16T08:54:35.314Z,36.95
2017-11-16T08:57:03.449Z,32.67
2017-11-16T08:59:31.610Z,27.52
2017-11-16T09:01:59.747Z,37.47
2017-11-16T09:04:27.918Z,36.53
2017-11-16T09:06:56.086Z,29.08
2017-11-16T09:09:24.234Z,32.88
2017-11-16T09:11:52.514Z,23.60
2017-11-16T09:14:20.654Z,32.83
2017-11-16T09:16:49.594Z,28.90
2017-11-16T09:19:17.762Z,29.80
2017-11-16T09:21:45.893Z,33.17
2017-11-16T09:24:14.042Z,31.17
2017-11-16T09:26:42.326Z,28.70
2017-11-16T09:29:10.504Z,28.60
2017-11-16T09:31:39.407Z,26.67
2017-11-16T09:34:08.342Z,25.05
2017-11-16T09:36:36.499Z,28.90
2017-11-16T09:39:04.637Z,26.90
2017-11-16T09:41:32.830Z,26.30
2017-11-16T09:44:00.982Z,23.15
2017-11-16T09:46:29.890Z,23.60
2017-11-16T09:48:58.170Z,22.13
2017-11-16T09:51:26.315Z,18.80
2017-11-16T09:53:54.485Z,19.65
2017-11-16T09:56:22.622Z,20.30
2017-11-16T09:58:50.764Z,20.83
2017-11-16T10:01:18.928Z,22.33
2017-11-16T10:03:47.057Z,21.33
2017-11-16T10:06:15.357Z,25.62
2017-11-16T10:08:44.265Z,22.52
2017-11-16T10:11:13.182Z,22.08
2017-11-16T10:13:41.358Z,28.62
2017-11-16T10:16:09.506Z,25.08
2017-11-16T10:18:38.427Z,28.52
2017-11-16T10:21:06.604Z,21.98
2017-11-16T10:23:34.718Z,34.42
2017-11-16T10:26:02.931Z,31.90
2017-11-16T10:28:31.078Z,23.05
2017-11-16T10:30:59.981Z,26.55
2017-11-16T10:33:28.173Z,22.02
2017-11-16T10:35:56.305Z,27.80
2017-11-16T10:38:24.459Z,22.87
2017-11-16T10:40:52.592Z,25.73
2017-11-16T10:43:20.879Z,28.25
2017-11-16T10:45:49.019Z,33.33
2017-11-16T10:48:17.914Z,24.60
2017-11-16T10:50:46.075Z,23.55
2017-11-16T10:53:14.973Z,23.20
2017-11-16T10:55:43.926Z,23.55
2017-11-16T10:58:12.055Z,22.67
2017-11-16T11:00:40.223Z,20.50
2017-11-16T11:03:09.273Z,21.55
2017-11-16T11:05:37.406Z,25.20
2017-11-16T11:08:05.575Z,19.30
2017-11-16T11:10:33.722Z,18.15
2017-11-16T11:13:02.623Z,22.48
2017-11-16T11:15:30.785Z,23.50
2017-11-16T11:17:59.685Z,27.70
2017-11-16T11:20:27.968Z,24.83
2017-11-16T11:22:56.106Z,24.92
2017-11-16T11:25:24.285Z,29.17
2017-11-16T11:27:52.421Z,24.08
2017-11-16T11:30:20.571Z,23.58
2017-11-16T11:32:48.725Z,25.08
2017-11-16T11:35:16.858Z,20.75
2017-11-16T11:37:45.145Z,20.90
2017-11-16T11:40:13.283Z,20.70
2017-11-16T11:42:41.447Z,23.42
2017-11-16T11:45:09.613Z,21.92
2017-11-16T11:47:37.779Z,23.87
2017-11-16T11:50:05.914Z,24.33
2017-11-16T11:52:34.074Z,44.25
2017-11-16T11:55:02.331Z,40.33
2017-11-16T11:57:30.477Z,26.75
2017-11-16T11:59:58.643Z,27.02
2017-11-16T12:02:26.801Z,21.27
2017-11-16T12:04:55.722Z,23.12
2017-11-16T12:07:23.880Z,26.42
2017-11-16T12:09:52.040Z,24.58
2017-11-16T12:12:21.013Z,23.30
2017-11-16T12:14:49.152Z,23.42
2017-11-16T12:17:17.311Z,22.00
2017-11-16T12:19:45.461Z,24.52
2017-11-16T12:22:13.613Z,22.50
2017-11-16T12:24:41.757Z,28.87
2017-11-16T12:27:10.235Z,26.83
2017-11-16T12:29:38.523Z,22.35
2017-11-16T12:32:06.659Z,21.50
2017-11-16T12:34:34.798Z,25.73
2017-11-16T12:37:03.734Z,24.35
2017-11-16T12:39:31.890Z,22.67
2017-11-16T12:42:00.056Z,20.60
2017-11-16T12:44:28.180Z,22.77
2017-11-16T12:46:56.323Z,16.60
2017-11-16T12:49:24.612Z,23.27
2017-11-16T12:51:52.745Z,25.73
2017-11-16T12:54:20.964Z,27.48
2017-11-16T12:56:49.102Z,25.35
2017-11-16T12:59:17.238Z,24.48
2017-11-16T13:01:45.398Z,25.37
2017-11-16T13:04:13.534Z,23.10
2017-11-16T13:06:41.709Z,28.30
2017-11-16T13:09:09.887Z,22.13
2017-11-16T13:11:38.010Z,22.75
2017-11-16T13:14:06.921Z,23.15
2017-11-16T13:16:35.875Z,21.70
2017-11-16T13:19:04.033Z,23.12
2017-11-16T13:21:32.182Z,24.55
2017-11-16T13:24:00.338Z,20.62
2017-11-16T13:26:28.512Z,17.92
2017-11-16T13:28:56.646Z,22.45
2017-11-16T13:31:24.861Z,24.52
2017-11-16T13:33:52.990Z,24.27
2017-11-16T13:36:21.127Z,19.33
2017-11-16T13:38:49.278Z,25.25
2017-11-16T13:41:17.570Z,22.17
2017-11-16T13:43:45.721Z,20.98
2017-11-16T13:46:13.896Z,21.85
2017-11-16T13:48:42.806Z,21.33
2017-11-16T13:51:10.950Z,25.52
2017-11-16T13:53:39.237Z,22.73
2017-11-16T13:56:08.173Z,25.00
2017-11-16T13:58:36.310Z,19.45
2017-11-16T14:01:04.492Z,18.05
2017-11-16T14:03:32.628Z,21.12
2017-11-16T14:06:00.762Z,21.33
2017-11-16T14:08:28.922Z,19.73
2017-11-16T14:10:57.070Z,20.50
2017-11-16T14:13:25.366Z,20.62
2017-11-16T14:15:53.514Z,21.45
2017-11-16T14:18:21.650Z,19.83
2017-11-16T14:20:49.823Z,23.55
2017-11-16T14:23:17.952Z,22.58
2017-11-16T14:25:46.240Z,22.33
2017-11-16T14:28:14.372Z,20.85
2017-11-16T14:30:43.302Z,19.10
2017-11-16T14:33:11.439Z,23.45
2017-11-16T14:35:39.594Z,18.87
2017-11-16T14:38:07.756Z,26.50
2017-11-16T14:40:35.915Z,24.15
2017-11-16T14:43:04.055Z,21.42
2017-11-16T14:45:32.342Z,25.10
2017-11-16T14:48:00.517Z,24.37
2017-11-16T14:50:28.674Z,25.20
2017-11-16T14:52:56.813Z,18.62
2017-11-16T14:55:25.002Z,24.80
2017-11-16T14:57:53.905Z,20.08
2017-11-16T15:00:22.804Z,22.05
2017-11-16T15:02:51.071Z,25.92
2017-11-16T15:05:19.289Z,20.27
2017-11-16T15:07:47.467Z,21.10
2017-11-16T15:10:15.645Z,19.58
2017-11-16T15:12:43.820Z,22.80
2017-11-16T15:15:11.963Z,21.20
2017-11-16T15:17:40.249Z,28.70
2017-11-16T15:20:08.389Z,25.05
2017-11-16T15:22:36.538Z,25.60
2017-11-16T15:25:04.710Z,24.65
2017-11-16T15:27:32.864Z,24.85
2017-11-16T15:30:01.115Z,23.80
2017-11-16T15:32:29.250Z,18.98
2017-11-16T15:34:58.162Z,23.40
2017-11-16T15:37:26.322Z,18.77
2017-11-16T15:39:54.466Z,21.45
2017-11-16T15:42:22.675Z,20.20
2017-11-16T15:44:50.842Z,20.77
2017-11-16T15:47:18.990Z,25.62
2017-11-16T15:49:47.179Z,22.17
2017-11-16T15:52:16.083Z,23.08
2017-11-16T15:54:44.286Z,22.25
2017-11-16T15:57:12.418Z,23.45
2017-11-16T16:00:04.487Z,25.73
2017-11-16T16:02:33.384Z,17.67
2017-11-16T16:05:01.521Z,18.40
2017-11-16T16:07:30.458Z,21.10
2017-11-16T16:09:58.618Z,23.75
2017-11-16T16:12:26.842Z,22.05
2017-11-16T16:15:02.934Z,24.10
2017-11-16T16:17:31.861Z,22.90
2017-11-16T16:20:00.027Z,20.60
2017-11-16T16:22:28.180Z,22.67
2017-11-16T16:24:56.346Z,24.85
2017-11-16T16:27:24.534Z,20.62
2017-11-16T16:29:52.764Z,21.92
2017-11-16T16:32:20.900Z,22.73
2017-11-16T16:34:49.076Z,21.62
2017-11-16T16:37:17.208Z,21.58
2017-11-16T16:39:45.403Z,22.80
2017-11-16T16:42:13.565Z,21.45
2017-11-16T16:44:41.697Z,22.52
2017-11-16T16:47:10.026Z,19.80
2017-11-16T16:49:38.155Z,22.23
2017-11-16T16:52:06.307Z,22.58
2017-11-16T16:54:34.483Z,23.50
2017-11-16T16:57:02.681Z,22.20
2017-11-16T16:59:31.646Z,22.75
2017-11-16T17:01:59.793Z,22.92
2017-11-16T17:04:27.936Z,22.15
2017-11-16T17:06:56.895Z,20.75
2017-11-16T17:09:25.966Z,23.30
2017-11-16T17:11:54.207Z,26.85
2017-11-16T17:14:22.337Z,23.73
2017-11-16T17:16:50.635Z,22.23
2017-11-16T17:19:19.527Z,22.02
2017-11-16T17:21:48.468Z,23.48
2017-11-16T17:24:16.626Z,23.60
2017-11-16T17:26:44.763Z,29.00
2017-11-16T17:29:12.926Z,24.10
2017-11-16T17:31:41.850Z,24.65
2017-11-16T17:34:10.148Z,21.55
2017-11-16T17:36:38.318Z,23.55
2017-11-16T17:39:06.459Z,27.62
2017-11-16T17:41:35.388Z,28.98
2017-11-16T17:44:03.518Z,26.65
2017-11-16T17:46:31.690Z,30.23
2017-11-16T17:49:00.621Z,26.50
2017-11-16T17:51:28.768Z,20.85
2017-11-16T17:53:57.090Z,25.10
2017-11-16T17:56:25.235Z,22.20
2017-11-16T17:58:53.445Z,25.35
2017-11-16T18:01:21.609Z,28.08
2017-11-16T18:03:49.767Z,21.58
2017-11-16T18:06:17.899Z,23.98
2017-11-16T18:08:46.891Z,21.75
2017-11-16T18:11:15.838Z,23.45
2017-11-16T18:13:43.986Z,23.48
2017-11-16T18:16:12.138Z,28.67
2017-11-16T18:18:41.145Z,26.20
2017-11-16T18:21:10.097Z,32.22
2017-11-16T18:23:38.271Z,27.42
2017-11-16T18:26:06.419Z,26.98
2017-11-16T18:28:34.599Z,25.58
2017-11-16T18:31:02.778Z,30.45
2017-11-16T18:33:31.100Z,29.27
2017-11-16T18:35:59.251Z,26.05
2017-11-16T18:38:27.403Z,25.85
2017-11-16T18:40:55.573Z,26.33
2017-11-16T18:43:23.726Z,26.70
2017-11-16T18:45:51.898Z,28.48
2017-11-16T18:48:20.069Z,25.48
2017-11-16T18:50:48.183Z,26.75
2017-11-16T18:53:16.406Z,26.70
2017-11-16T18:55:44.547Z,26.60
2017-11-16T18:58:13.506Z,25.80
2017-11-16T19:00:42.418Z,36.60
2017-11-16T19:03:10.589Z,28.70
2017-11-16T19:05:38.741Z,25.25
2017-11-16T19:08:07.031Z,28.50
2017-11-16T19:10:35.188Z,28.77
2017-11-16T19:13:03.631Z,25.98
2017-11-16T19:15:31.844Z,27.42
2017-11-16T19:18:00.060Z,29.20
2017-11-16T19:20:29.049Z,28.45
2017-11-16T19:22:57.183Z,32.80
2017-11-16T19:25:26.175Z,39.33
2017-11-16T19:27:54.338Z,37.72
2017-11-16T19:30:22.467Z,39.17
2017-11-16T19:32:51.431Z,36.78
2017-11-16T19:35:19.591Z,30.90
2017-11-16T19:37:47.778Z,27.45
2017-11-16T19:40:15.926Z,32.97
2017-11-16T19:42:44.060Z,32.80
2017-11-16T19:45:12.265Z,25.12
2017-11-16T19:47:40.409Z,28.90
2017-11-16T19:50:08.586Z,30.58
2017-11-16T19:52:36.739Z,30.52
2017-11-16T19:55:05.643Z,28.20
2017-11-16T19:57:33.825Z,31.10
2017-11-16T20:00:02.663Z,31.37
2017-11-16T20:02:30.936Z,28.87
2017-11-16T20:04:59.088Z,28.23
2017-11-16T20:07:27.269Z,24.67
2017-11-16T20:09:55.462Z,27.58
2017-11-16T20:12:23.644Z,26.40
2017-11-16T20:14:51.804Z,26.92
2017-11-16T20:17:20.138Z,29.63
2017-11-16T20:19:48.335Z,30.90
2017-11-16T20:22:16.485Z,23.73
2017-11-16T20:24:44.707Z,26.40
2017-11-16T20:27:12.870Z,28.95
2017-11-16T20:29:41.070Z,28.90
2017-11-16T20:32:09.241Z,27.67
2017-11-16T20:34:37.572Z,31.67
2017-11-16T20:37:05.758Z,30.02
2017-11-16T20:39:34.692Z,28.87
2017-11-16T20:42:02.834Z,26.37
2017-11-16T20:44:31.018Z,29.63
2017-11-16T20:46:59.189Z,26.08
2017-11-16T20:49:27.336Z,29.37
2017-11-16T20:51:55.624Z,26.87
2017-11-16T20:54:23.765Z,36.08
2017-11-16T20:56:51.937Z,31.45
2017-11-16T20:59:20.073Z,29.80
2017-11-16T21:01:48.219Z,31.50
2017-11-16T21:04:16.516Z,31.08
2017-11-16T21:06:44.682Z,29.77
2017-11-16T21:09:12.842Z,29.85
2017-11-16T21:11:41.082Z,31.90
2017-11-16T21:14:09.251Z,30.62
2017-11-16T21:16:37.399Z,32.03
2017-11-16T21:19:05.691Z,29.63
2017-11-16T21:21:33.825Z,33.03
2017-11-16T21:24:02.052Z,31.00
2017-11-16T21:26:30.205Z,30.08
2017-11-16T21:28:59.142Z,29.30
2017-11-16T21:31:27.306Z,32.90
2017-11-16T21:33:55.485Z,33.38
2017-11-16T21:36:23.679Z,32.83
2017-11-16T21:38:51.812Z,39.13
2017-11-16T21:41:20.136Z,37.50
2017-11-16T21:43:48.289Z,33.15
2017-11-16T21:46:16.446Z,29.98
2017-11-16T21:48:44.640Z,38.80
2017-11-16T21:51:12.793Z,35.30
2017-11-16T21:53:40.926Z,36.83
2017-11-16T21:56:09.985Z,35.88
2017-11-16T21:58:38.146Z,34.83
2017-11-16T22:01:06.297Z,36.53
2017-11-16T22:03:34.442Z,33.65
2017-11-16T22:06:03.375Z,41.03
2017-11-16T22:08:31.507Z,36.05
2017-11-16T22:11:00.435Z,34.17
2017-11-16T22:13:29.498Z,35.45
2017-11-16T22:15:58.397Z,42.35
2017-11-16T22:18:27.342Z,38.92
2017-11-16T22:20:55.506Z,34.75
2017-11-16T22:23:23.630Z,38.35
2017-11-16T22:25:52.583Z,36.85
2017-11-16T22:28:20.711Z,34.90
2017-11-16T22:30:48.845Z,41.37
2017-11-16T22:33:17.122Z,36.42
2017-11-16T22:35:45.289Z,40.05
2017-11-16T22:38:13.459Z,33.45
2017-11-16T22:40:41.592Z,34.38
2017-11-16T22:43:09.763Z,32.88
2017-11-16T22:45:37.905Z,35.78
2017-11-16T22:48:06.961Z,39.55
2017-11-16T22:50:35.097Z,38.55
2017-11-16T22:53:03.261Z,38.15
2017-11-16T22:55:32.212Z,40.33
2017-11-16T22:58:00.357Z,35.03
2017-11-16T23:00:28.518Z,35.78
2017-11-16T23:02:56.657Z,35.85
2017-11-16T23:05:25.554Z,39.28
2017-11-16T23:07:54.467Z,38.03
2017-11-16T23:10:22.774Z,38.25
2017-11-16T23:12:50.906Z,37.03
2017-11-16T23:15:19.088Z,41.37
2017-11-16T23:17:47.235Z,39.42
2017-11-16T23:20:15.506Z,40.70
2017-11-16T23:22:44.423Z,34.92
2017-11-16T23:25:12.552Z,35.33
2017-11-16T23:27:40.718Z,38.20
2017-11-16T23:30:08.870Z,39.33
2017-11-16T23:32:37.010Z,31.48
2017-11-16T23:35:05.292Z,34.47
2017-11-16T23:37:33.431Z,37.20
2017-11-16T23:40:01.628Z,38.38
2017-11-16T23:42:29.770Z,41.50
2017-11-16T23:44:57.966Z,42.40
2017-11-16T23:47:26.894Z,35.58
2017-11-16T23:49:55.030Z,40.63
2017-11-16T23:52:23.958Z,40.25
2017-11-16T23:54:52.099Z,44.42
2017-11-16T23:57:21.169Z,37.22
2017-11-16T23:59:49.302Z,41.17
